DBBB/COO METAR and TAF weather

Enter ICAO airport designator
Station Type Date Time Source
DBBB METAR 2020/07/05 16:00 UTC NOAA

DBBB 051600Z 23012KT 9999 FEW013 28/24 Q1010 NOSIG


Station Type Date Time Source
DBBB Decoded METAR 2020/07/05 16:00 UTC NOAA

Cotonou, Benin (DBBB) 06-21N 002-23E 9M
Jul 05, 2020 - 12:00 PM EDT / 2020.07.05 1600 UTC
Wind: from the SW (230 degrees) at 14 MPH (12 KT):0
Visibility: greater than 7 mile(s):0
Sky conditions: mostly clear
Temperature: 82 F (28 C)
Dew Point: 75 F (24 C)
Relative Humidity: 78%
Pressure (altimeter): 29.83 in. Hg (1010 hPa)
ob: DBBB 051600Z 23012KT 9999 FEW013 28/24 Q1010 NOSIG
cycle: 16

Station Type Date Time Source
DBBB TAF 2020/07/05 12:21 UTC NOAA

TAF TAF DBBB 051100Z 0512/0618 24010KT 9999 SCT012 PROB30 0603/0609 4000 RA BKN010 FEW023CB

Example: see airport list